sensor_id;sensor_type;location;lat;lon;timestamp;temperature;humidity
58469;DHT22;44257;44.804;10.220;2023-03-01T00:01:13;3.50;99.90
58469;DHT22;44257;44.804;10.220;2023-03-01T00:03:38;3.50;99.90
58469;DHT22;44257;44.804;10.220;2023-03-01T00:06:05;3.50;99.90
58469;DHT22;44257;44.804;10.220;2023-03-01T00:08:31;3.40;99.90
58469;DHT22;44257;44.804;10.220;2023-03-01T00:11:15;3.40;99.90
58469;DHT22;44257;44.804;10.220;2023-03-01T00:13:43;3.40;99.90
58469;DHT22;44257;44.804;10.220;2023-03-01T00:16:17;3.30;99.90
58469;DHT22;44257;44.804;10.220;2023-03-01T00:18:43;3.20;99.90
58469;DHT22;44257;44.804;10.220;2023-03-01T00:21:09;3.10;99.90
58469;DHT22;44257;44.804;10.220;2023-03-01T00:23:35;3.00;99.90
58469;DHT22;44257;44.804;10.220;2023-03-01T00:26:04;3.00;99.90
58469;DHT22;44257;44.804;10.220;2023-03-01T00:28:31;2.90;99.90
58469;DHT22;44257;44.804;10.220;2023-03-01T00:31:03;2.90;99.90
58469;DHT22;44257;44.804;10.220;2023-03-01T00:33:29;2.80;99.90
58469;DHT22;44257;44.804;10.220;2023-03-01T00:35:58;2.80;99.90
58469;DHT22;44257;44.804;10.220;2023-03-01T00:38:24;2.70;99.90
58469;DHT22;44257;44.804;10.220;2023-03-01T00:40:49;2.60;99.90
58469;DHT22;44257;44.804;10.220;2023-03-01T00:43:15;2.50;99.90
58469;DHT22;44257;44.804;10.220;2023-03-01T00:45:41;2.50;99.90
58469;DHT22;44257;44.804;10.220;2023-03-01T00:48:07;2.40;99.90
58469;DHT22;44257;44.804;10.220;2023-03-01T00:50:33;2.30;99.90
58469;DHT22;44257;44.804;10.220;2023-03-01T00:52:58;2.20;99.90
58469;DHT22;44257;44.804;10.220;2023-03-01T00:55:24;2.10;99.90
58469;DHT22;44257;44.804;10.220;2023-03-01T00:57:51;2.10;99.90
58469;DHT22;44257;44.804;10.220;2023-03-01T01:00:17;2.00;99.90
58469;DHT22;44257;44.804;10.220;2023-03-01T01:02:43;2.00;99.90
58469;DHT22;44257;44.804;10.220;2023-03-01T01:05:09;2.00;99.90
58469;DHT22;44257;44.804;10.220;2023-03-01T01:07:35;2.00;99.90
58469;DHT22;44257;44.804;10.220;2023-03-01T01:10:01;2.00;99.90
58469;DHT22;44257;44.804;10.220;2023-03-01T01:12:27;2.00;99.90
58469;DHT22;44257;44.804;10.220;2023-03-01T01:14:53;2.00;99.90
58469;DHT22;44257;44.804;10.220;2023-03-01T01:17:18;2.00;99.90
58469;DHT22;44257;44.804;10.220;2023-03-01T01:19:44;2.00;99.90
58469;DHT22;44257;44.804;10.220;2023-03-01T01:22:10;1.90;99.90
58469;DHT22;44257;44.804;10.220;2023-03-01T01:24:36;1.90;99.90
58469;DHT22;44257;44.804;10.220;2023-03-01T01:27:02;1.90;99.90
58469;DHT22;44257;44.804;10.220;2023-03-01T01:29:27;1.90;99.90
58469;DHT22;44257;44.804;10.220;2023-03-01T01:31:53;1.90;99.90
58469;DHT22;44257;44.804;10.220;2023-03-01T01:34:21;1.90;99.90
58469;DHT22;44257;44.804;10.220;2023-03-01T01:36:53;1.90;99.90
58469;DHT22;44257;44.804;10.220;2023-03-01T01:39:20;1.80;99.90
58469;DHT22;44257;44.804;10.220;2023-03-01T01:41:46;1.80;99.90
58469;DHT22;44257;44.804;10.220;2023-03-01T01:44:24;1.80;99.90
58469;DHT22;44257;44.804;10.220;2023-03-01T01:47:20;1.80;99.90
58469;DHT22;44257;44.804;10.220;2023-03-01T01:49:55;1.80;99.90
58469;DHT22;44257;44.804;10.220;2023-03-01T01:52:31;1.90;99.90
58469;DHT22;44257;44.804;10.220;2023-03-01T01:55:06;1.90;99.90
58469;DHT22;44257;44.804;10.220;2023-03-01T01:57:38;2.00;99.90
58469;DHT22;44257;44.804;10.220;2023-03-01T02:00:09;2.10;99.90
58469;DHT22;44257;44.804;10.220;2023-03-01T02:02:43;2.20;99.90
58469;DHT22;44257;44.804;10.220;2023-03-01T02:05:16;2.20;99.90
58469;DHT22;44257;44.804;10.220;2023-03-01T02:07:43;2.20;99.90
58469;DHT22;44257;44.804;10.220;2023-03-01T02:10:10;2.10;99.90
58469;DHT22;44257;44.804;10.220;2023-03-01T02:12:36;2.00;99.90
58469;DHT22;44257;44.804;10.220;2023-03-01T02:15:02;2.00;99.90
58469;DHT22;44257;44.804;10.220;2023-03-01T02:17:28;1.90;99.90
58469;DHT22;44257;44.804;10.220;2023-03-01T02:22:37;1.80;99.90
58469;DHT22;44257;44.804;10.220;2023-03-01T02:28:03;1.60;99.90
58469;DHT22;44257;44.804;10.220;2023-03-01T02:30:31;1.50;99.90
58469;DHT22;44257;44.804;10.220;2023-03-01T02:33:00;1.50;99.90
58469;DHT22;44257;44.804;10.220;2023-03-01T02:35:31;1.50;99.90
58469;DHT22;44257;44.804;10.220;2023-03-01T02:37:59;1.40;99.90
58469;DHT22;44257;44.804;10.220;2023-03-01T02:40:29;1.40;99.90
58469;DHT22;44257;44.804;10.220;2023-03-01T02:42:58;1.40;99.90
58469;DHT22;44257;44.804;10.220;2023-03-01T02:45:25;1.50;99.90
58469;DHT22;44257;44.804;10.220;2023-03-01T02:47:56;1.50;99.90
58469;DHT22;44257;44.804;10.220;2023-03-01T02:53:10;1.50;99.90
58469;DHT22;44257;44.804;10.220;2023-03-01T02:55:38;1.40;99.90
58469;DHT22;44257;44.804;10.220;2023-03-01T02:58:04;1.40;99.90
58469;DHT22;44257;44.804;10.220;2023-03-01T03:00:41;1.40;99.90
58469;DHT22;44257;44.804;10.220;2023-03-01T03:03:15;1.40;99.90
58469;DHT22;44257;44.804;10.220;2023-03-01T03:05:42;1.50;99.90
58469;DHT22;44257;44.804;10.220;2023-03-01T03:08:08;1.60;99.90
58469;DHT22;44257;44.804;10.220;2023-03-01T03:10:38;1.50;99.90
58469;DHT22;44257;44.804;10.220;2023-03-01T03:13:10;1.50;99.90
58469;DHT22;44257;44.804;10.220;2023-03-01T03:15:37;1.50;99.90
58469;DHT22;44257;44.804;10.220;2023-03-01T03:18:06;1.50;99.90
58469;DHT22;44257;44.804;10.220;2023-03-01T03:20:33;1.50;99.90
58469;DHT22;44257;44.804;10.220;2023-03-01T03:22:59;1.70;99.90
58469;DHT22;44257;44.804;10.220;2023-03-01T03:25:28;1.80;99.90
58469;DHT22;44257;44.804;10.220;2023-03-01T03:27:55;1.90;99.90
58469;DHT22;44257;44.804;10.220;2023-03-01T03:30:27;2.00;99.90
58469;DHT22;44257;44.804;10.220;2023-03-01T03:32:53;2.00;99.90
58469;DHT22;44257;44.804;10.220;2023-03-01T03:35:24;2.00;99.90
58469;DHT22;44257;44.804;10.220;2023-03-01T03:37:51;2.10;99.90
58469;DHT22;44257;44.804;10.220;2023-03-01T03:40:41;2.10;99.90
58469;DHT22;44257;44.804;10.220;2023-03-01T03:43:18;2.20;99.90
58469;DHT22;44257;44.804;10.220;2023-03-01T03:45:45;2.30;99.90
58469;DHT22;44257;44.804;10.220;2023-03-01T03:48:11;2.30;99.90
58469;DHT22;44257;44.804;10.220;2023-03-01T03:50:39;2.30;99.90
58469;DHT22;44257;44.804;10.220;2023-03-01T03:53:09;2.30;99.90
58469;DHT22;44257;44.804;10.220;2023-03-01T03:55:36;2.30;99.90
58469;DHT22;44257;44.804;10.220;2023-03-01T03:58:06;2.30;99.90
58469;DHT22;44257;44.804;10.220;2023-03-01T04:00:41;2.30;99.90
58469;DHT22;44257;44.804;10.220;2023-03-01T04:03:08;2.30;99.90
58469;DHT22;44257;44.804;10.220;2023-03-01T04:05:36;2.40;99.90
58469;DHT22;44257;44.804;10.220;2023-03-01T04:08:02;2.40;99.90
58469;DHT22;44257;44.804;10.220;2023-03-01T04:10:30;2.50;99.90
58469;DHT22;44257;44.804;10.220;2023-03-01T04:12:56;2.50;99.90
58469;DHT22;44257;44.804;10.220;2023-03-01T04:15:24;2.40;99.90
58469;DHT22;44257;44.804;10.220;2023-03-01T04:17:52;2.50;99.90
58469;DHT22;44257;44.804;10.220;2023-03-01T04:20:23;2.40;99.90
58469;DHT22;44257;44.804;10.220;2023-03-01T04:22:52;2.40;99.90
58469;DHT22;44257;44.804;10.220;2023-03-01T04:25:19;2.40;99.90
58469;DHT22;44257;44.804;10.220;2023-03-01T04:27:45;2.40;99.90
58469;DHT22;44257;44.804;10.220;2023-03-01T04:30:11;2.40;99.90
58469;DHT22;44257;44.804;10.220;2023-03-01T04:32:37;2.40;99.90
58469;DHT22;44257;44.804;10.220;2023-03-01T04:35:02;2.50;99.90
58469;DHT22;44257;44.804;10.220;2023-03-01T04:37:28;2.60;99.90
58469;DHT22;44257;44.804;10.220;2023-03-01T04:39:55;2.70;99.90
58469;DHT22;44257;44.804;10.220;2023-03-01T04:42:21;2.70;99.90
58469;DHT22;44257;44.804;10.220;2023-03-01T04:44:46;2.60;99.90
58469;DHT22;44257;44.804;10.220;2023-03-01T04:47:12;2.60;99.90
58469;DHT22;44257;44.804;10.220;2023-03-01T04:49:38;2.70;99.90
58469;DHT22;44257;44.804;10.220;2023-03-01T04:52:04;2.70;99.90
58469;DHT22;44257;44.804;10.220;2023-03-01T04:54:31;2.80;99.90
58469;DHT22;44257;44.804;10.220;2023-03-01T04:56:58;2.70;99.90
58469;DHT22;44257;44.804;10.220;2023-03-01T04:59:24;2.70;99.90
58469;DHT22;44257;44.804;10.220;2023-03-01T05:01:51;2.60;99.90
58469;DHT22;44257;44.804;10.220;2023-03-01T05:04:17;2.70;99.90
58469;DHT22;44257;44.804;10.220;2023-03-01T05:06:43;2.70;99.90
58469;DHT22;44257;44.804;10.220;2023-03-01T05:09:08;2.70;99.90
58469;DHT22;44257;44.804;10.220;2023-03-01T05:11:34;2.70;99.90
58469;DHT22;44257;44.804;10.220;2023-03-01T05:14:08;2.70;99.90
58469;DHT22;44257;44.804;10.220;2023-03-01T05:16:35;2.70;99.90
58469;DHT22;44257;44.804;10.220;2023-03-01T05:19:03;2.60;99.90
58469;DHT22;44257;44.804;10.220;2023-03-01T05:21:41;2.70;99.90
58469;DHT22;44257;44.804;10.220;2023-03-01T05:24:26;2.70;99.90
58469;DHT22;44257;44.804;10.220;2023-03-01T05:26:53;2.70;99.90
58469;DHT22;44257;44.804;10.220;2023-03-01T05:29:23;2.70;99.90
58469;DHT22;44257;44.804;10.220;2023-03-01T05:31:58;2.80;99.90
58469;DHT22;44257;44.804;10.220;2023-03-01T05:34:28;2.80;99.90
58469;DHT22;44257;44.804;10.220;2023-03-01T05:36:54;2.80;99.90
58469;DHT22;44257;44.804;10.220;2023-03-01T05:39:22;2.70;99.90
58469;DHT22;44257;44.804;10.220;2023-03-01T05:41:51;2.80;99.90
58469;DHT22;44257;44.804;10.220;2023-03-01T05:44:18;2.70;99.90
58469;DHT22;44257;44.804;10.220;2023-03-01T05:46:43;2.80;99.90
58469;DHT22;44257;44.804;10.220;2023-03-01T05:49:11;2.80;99.90
58469;DHT22;44257;44.804;10.220;2023-03-01T05:51:39;2.80;99.90
58469;DHT22;44257;44.804;10.220;2023-03-01T05:54:05;2.80;99.90
58469;DHT22;44257;44.804;10.220;2023-03-01T05:56:33;2.80;99.90
58469;DHT22;44257;44.804;10.220;2023-03-01T05:59:00;2.90;99.90
58469;DHT22;44257;44.804;10.220;2023-03-01T06:01:26;3.00;99.90
58469;DHT22;44257;44.804;10.220;2023-03-01T06:03:52;3.00;99.90
58469;DHT22;44257;44.804;10.220;2023-03-01T06:06:18;3.10;99.90
58469;DHT22;44257;44.804;10.220;2023-03-01T06:08:43;3.00;99.90
58469;DHT22;44257;44.804;10.220;2023-03-01T06:11:09;3.00;99.90
58469;DHT22;44257;44.804;10.220;2023-03-01T06:26:44;3.00;99.90
58469;DHT22;44257;44.804;10.220;2023-03-01T06:29:10;3.20;99.90
58469;DHT22;44257;44.804;10.220;2023-03-01T06:31:35;3.30;99.90
58469;DHT22;44257;44.804;10.220;2023-03-01T06:34:02;3.40;99.90
58469;DHT22;44257;44.804;10.220;2023-03-01T06:36:28;3.50;99.90
58469;DHT22;44257;44.804;10.220;2023-03-01T06:38:54;3.50;99.90
58469;DHT22;44257;44.804;10.220;2023-03-01T06:41:19;3.50;99.90
58469;DHT22;44257;44.804;10.220;2023-03-01T06:43:45;3.50;99.90
58469;DHT22;44257;44.804;10.220;2023-03-01T06:46:12;3.60;99.90
58469;DHT22;44257;44.804;10.220;2023-03-01T06:48:37;3.60;99.90
58469;DHT22;44257;44.804;10.220;2023-03-01T06:51:03;3.60;99.90
58469;DHT22;44257;44.804;10.220;2023-03-01T06:53:30;3.60;99.90
58469;DHT22;44257;44.804;10.220;2023-03-01T06:55:56;3.60;99.90
58469;DHT22;44257;44.804;10.220;2023-03-01T06:58:23;3.60;99.90
58469;DHT22;44257;44.804;10.220;2023-03-01T07:00:49;3.80;99.90
58469;DHT22;44257;44.804;10.220;2023-03-01T07:03:15;3.80;99.90
58469;DHT22;44257;44.804;10.220;2023-03-01T07:05:40;3.90;99.90
58469;DHT22;44257;44.804;10.220;2023-03-01T07:08:06;4.00;99.90
58469;DHT22;44257;44.804;10.220;2023-03-01T07:10:32;4.20;99.90
58469;DHT22;44257;44.804;10.220;2023-03-01T07:12:59;4.30;99.90
58469;DHT22;44257;44.804;10.220;2023-03-01T07:15:26;4.50;99.90
58469;DHT22;44257;44.804;10.220;2023-03-01T07:17:52;4.70;99.90
58469;DHT22;44257;44.804;10.220;2023-03-01T07:20:19;4.80;99.90
58469;DHT22;44257;44.804;10.220;2023-03-01T07:22:48;5.00;99.90
58469;DHT22;44257;44.804;10.220;2023-03-01T07:25:14;5.20;99.90
58469;DHT22;44257;44.804;10.220;2023-03-01T07:27:39;5.30;99.90
58469;DHT22;44257;44.804;10.220;2023-03-01T07:30:06;5.40;99.90
58469;DHT22;44257;44.804;10.220;2023-03-01T07:32:32;5.50;99.90
58469;DHT22;44257;44.804;10.220;2023-03-01T07:34:58;5.40;99.90
58469;DHT22;44257;44.804;10.220;2023-03-01T07:37:24;5.50;99.90
58469;DHT22;44257;44.804;10.220;2023-03-01T07:39:50;5.60;99.90
58469;DHT22;44257;44.804;10.220;2023-03-01T07:42:16;5.70;99.90
58469;DHT22;44257;44.804;10.220;2023-03-01T07:44:42;5.80;99.90
58469;DHT22;44257;44.804;10.220;2023-03-01T07:47:08;5.90;99.90
58469;DHT22;44257;44.804;10.220;2023-03-01T07:49:34;6.00;99.90
58469;DHT22;44257;44.804;10.220;2023-03-01T07:52:00;6.10;99.90
58469;DHT22;44257;44.804;10.220;2023-03-01T07:54:26;6.10;99.90
58469;DHT22;44257;44.804;10.220;2023-03-01T07:56:52;6.20;99.90
58469;DHT22;44257;44.804;10.220;2023-03-01T07:59:20;6.30;99.90
58469;DHT22;44257;44.804;10.220;2023-03-01T08:01:46;6.40;99.90
58469;DHT22;44257;44.804;10.220;2023-03-01T08:04:12;6.50;99.90
58469;DHT22;44257;44.804;10.220;2023-03-01T08:06:38;6.60;99.90
58469;DHT22;44257;44.804;10.220;2023-03-01T08:09:03;6.60;99.90
58469;DHT22;44257;44.804;10.220;2023-03-01T08:11:29;6.60;99.90
58469;DHT22;44257;44.804;10.220;2023-03-01T08:13:55;6.50;99.90
58469;DHT22;44257;44.804;10.220;2023-03-01T08:16:23;6.50;99.90
58469;DHT22;44257;44.804;10.220;2023-03-01T08:18:49;6.40;99.90
58469;DHT22;44257;44.804;10.220;2023-03-01T08:21:16;6.40;99.90
58469;DHT22;44257;44.804;10.220;2023-03-01T08:23:43;6.40;99.90
58469;DHT22;44257;44.804;10.220;2023-03-01T08:26:15;6.40;99.90
58469;DHT22;44257;44.804;10.220;2023-03-01T08:28:41;6.40;99.90
58469;DHT22;44257;44.804;10.220;2023-03-01T08:31:21;6.50;99.90
58469;DHT22;44257;44.804;10.220;2023-03-01T08:33:48;6.50;99.90
58469;DHT22;44257;44.804;10.220;2023-03-01T08:36:26;6.50;99.90
58469;DHT22;44257;44.804;10.220;2023-03-01T08:38:53;6.40;99.90
58469;DHT22;44257;44.804;10.220;2023-03-01T08:41:19;6.30;99.90
58469;DHT22;44257;44.804;10.220;2023-03-01T08:43:45;6.20;99.90
58469;DHT22;44257;44.804;10.220;2023-03-01T08:46:11;6.20;99.90
58469;DHT22;44257;44.804;10.220;2023-03-01T08:48:38;6.10;99.90
58469;DHT22;44257;44.804;10.220;2023-03-01T08:51:12;6.10;99.90
58469;DHT22;44257;44.804;10.220;2023-03-01T08:53:39;6.20;99.90
58469;DHT22;44257;44.804;10.220;2023-03-01T08:56:05;6.20;99.90
58469;DHT22;44257;44.804;10.220;2023-03-01T08:58:32;6.20;99.90
58469;DHT22;44257;44.804;10.220;2023-03-01T09:00:58;6.20;99.90
58469;DHT22;44257;44.804;10.220;2023-03-01T09:03:24;6.20;99.90
58469;DHT22;44257;44.804;10.220;2023-03-01T09:05:51;6.20;99.90
58469;DHT22;44257;44.804;10.220;2023-03-01T09:08:18;6.10;99.90
58469;DHT22;44257;44.804;10.220;2023-03-01T09:10:44;6.10;99.90
58469;DHT22;44257;44.804;10.220;2023-03-01T09:13:10;6.10;99.90
58469;DHT22;44257;44.804;10.220;2023-03-01T09:15:37;6.10;99.90
58469;DHT22;44257;44.804;10.220;2023-03-01T09:18:04;6.00;99.90
58469;DHT22;44257;44.804;10.220;2023-03-01T09:20:30;6.00;99.90
58469;DHT22;44257;44.804;10.220;2023-03-01T09:22:56;6.10;99.90
58469;DHT22;44257;44.804;10.220;2023-03-01T09:25:22;6.20;99.90
58469;DHT22;44257;44.804;10.220;2023-03-01T09:27:51;6.40;99.90
58469;DHT22;44257;44.804;10.220;2023-03-01T09:30:17;6.50;99.90
58469;DHT22;44257;44.804;10.220;2023-03-01T09:32:43;6.60;99.90
58469;DHT22;44257;44.804;10.220;2023-03-01T09:35:10;6.80;99.90
58469;DHT22;44257;44.804;10.220;2023-03-01T09:37:37;6.80;99.90
58469;DHT22;44257;44.804;10.220;2023-03-01T09:40:08;6.80;99.90
58469;DHT22;44257;44.804;10.220;2023-03-01T09:42:49;6.70;99.90
58469;DHT22;44257;44.804;10.220;2023-03-01T09:45:35;6.60;99.90
58469;DHT22;44257;44.804;10.220;2023-03-01T09:48:04;6.50;99.90
58469;DHT22;44257;44.804;10.220;2023-03-01T09:50:36;6.50;99.90
58469;DHT22;44257;44.804;10.220;2023-03-01T09:53:12;6.50;99.90
58469;DHT22;44257;44.804;10.220;2023-03-01T09:55:44;6.50;99.90
58469;DHT22;44257;44.804;10.220;2023-03-01T10:09:38;6.80;99.90
58469;DHT22;44257;44.804;10.220;2023-03-01T10:12:12;6.90;99.90
58469;DHT22;44257;44.804;10.220;2023-03-01T10:14:48;6.90;99.90
58469;DHT22;44257;44.804;10.220;2023-03-01T10:19:51;7.00;99.90
58469;DHT22;44257;44.804;10.220;2023-03-01T10:22:25;7.00;99.90
58469;DHT22;44257;44.804;10.220;2023-03-01T10:24:54;7.10;99.90
58469;DHT22;44257;44.804;10.220;2023-03-01T10:27:24;7.20;99.90
58469;DHT22;44257;44.804;10.220;2023-03-01T10:32:19;7.30;99.90
58469;DHT22;44257;44.804;10.220;2023-03-01T10:34:47;7.40;99.90
58469;DHT22;44257;44.804;10.220;2023-03-01T10:39:55;7.40;99.90
58469;DHT22;44257;44.804;10.220;2023-03-01T10:42:32;7.50;99.90
58469;DHT22;44257;44.804;10.220;2023-03-01T10:47:46;7.70;99.90
58469;DHT22;44257;44.804;10.220;2023-03-01T10:50:22;7.70;99.90
58469;DHT22;44257;44.804;10.220;2023-03-01T10:53:03;7.80;99.90
58469;DHT22;44257;44.804;10.220;2023-03-01T10:55:37;7.90;99.90
58469;DHT22;44257;44.804;10.220;2023-03-01T10:58:30;8.00;99.90
58469;DHT22;44257;44.804;10.220;2023-03-01T11:01:05;8.10;99.90
58469;DHT22;44257;44.804;10.220;2023-03-01T11:03:36;8.10;99.90
58469;DHT22;44257;44.804;10.220;2023-03-01T11:06:20;8.10;99.90
58469;DHT22;44257;44.804;10.220;2023-03-01T11:08:49;8.20;99.90
58469;DHT22;44257;44.804;10.220;2023-03-01T11:11:26;8.20;99.90
58469;DHT22;44257;44.804;10.220;2023-03-01T11:14:24;8.10;99.90
58469;DHT22;44257;44.804;10.220;2023-03-01T11:19:25;8.10;99.90
58469;DHT22;44257;44.804;10.220;2023-03-01T11:22:13;8.00;99.90
58469;DHT22;44257;44.804;10.220;2023-03-01T11:24:54;8.00;99.90
58469;DHT22;44257;44.804;10.220;2023-03-01T11:27:36;7.90;99.90
58469;DHT22;44257;44.804;10.220;2023-03-01T11:30:18;7.80;99.90
58469;DHT22;44257;44.804;10.220;2023-03-01T11:35:35;7.60;99.90
58469;DHT22;44257;44.804;10.220;2023-03-01T11:40:46;7.60;99.90
58469;DHT22;44257;44.804;10.220;2023-03-01T11:49:03;7.50;99.90
58469;DHT22;44257;44.804;10.220;2023-03-01T11:51:39;7.40;99.90
58469;DHT22;44257;44.804;10.220;2023-03-01T12:12:44;6.70;99.90
58469;DHT22;44257;44.804;10.220;2023-03-01T12:21:19;6.60;99.90
58469;DHT22;44257;44.804;10.220;2023-03-01T12:23:45;6.60;99.90
58469;DHT22;44257;44.804;10.220;2023-03-01T12:26:38;6.60;99.90
58469;DHT22;44257;44.804;10.220;2023-03-01T12:29:25;6.50;99.90
58469;DHT22;44257;44.804;10.220;2023-03-01T12:40:03;6.40;99.90
58469;DHT22;44257;44.804;10.220;2023-03-01T12:50:44;6.20;99.90
58469;DHT22;44257;44.804;10.220;2023-03-01T12:53:36;6.10;99.90
58469;DHT22;44257;44.804;10.220;2023-03-01T12:56:06;6.00;99.90
58469;DHT22;44257;44.804;10.220;2023-03-01T12:58:51;6.00;99.90
58469;DHT22;44257;44.804;10.220;2023-03-01T13:04:31;6.00;99.90
58469;DHT22;44257;44.804;10.220;2023-03-01T13:17:54;5.70;99.90
58469;DHT22;44257;44.804;10.220;2023-03-01T13:20:25;5.70;99.90
58469;DHT22;44257;44.804;10.220;2023-03-01T13:23:23;5.70;99.90
58469;DHT22;44257;44.804;10.220;2023-03-01T13:31:56;5.60;99.90
58469;DHT22;44257;44.804;10.220;2023-03-01T13:34:00;5.60;99.90
58469;DHT22;44257;44.804;10.220;2023-03-01T13:38:59;5.50;99.90
58469;DHT22;44257;44.804;10.220;2023-03-01T13:46:44;5.50;99.90
58469;DHT22;44257;44.804;10.220;2023-03-01T13:49:19;5.50;99.90
58469;DHT22;44257;44.804;10.220;2023-03-01T13:51:48;5.50;99.90
58469;DHT22;44257;44.804;10.220;2023-03-01T13:54:16;5.50;99.90
58469;DHT22;44257;44.804;10.220;2023-03-01T13:56:43;5.50;99.90
58469;DHT22;44257;44.804;10.220;2023-03-01T13:59:18;5.50;99.90
58469;DHT22;44257;44.804;10.220;2023-03-01T14:01:52;5.50;99.90
58469;DHT22;44257;44.804;10.220;2023-03-01T14:06:49;5.40;99.90
58469;DHT22;44257;44.804;10.220;2023-03-01T14:09:26;5.40;99.90
58469;DHT22;44257;44.804;10.220;2023-03-01T14:19:59;5.30;99.90
58469;DHT22;44257;44.804;10.220;2023-03-01T14:22:29;5.30;99.90
58469;DHT22;44257;44.804;10.220;2023-03-01T14:25:17;5.30;99.90
58469;DHT22;44257;44.804;10.220;2023-03-01T14:27:44;5.20;99.90
58469;DHT22;44257;44.804;10.220;2023-03-01T14:30:25;5.20;99.90
58469;DHT22;44257;44.804;10.220;2023-03-01T14:32:57;5.20;99.90
58469;DHT22;44257;44.804;10.220;2023-03-01T14:35:29;5.30;99.90
58469;DHT22;44257;44.804;10.220;2023-03-01T14:37:56;5.30;99.90
58469;DHT22;44257;44.804;10.220;2023-03-01T14:40:31;5.30;99.90
58469;DHT22;44257;44.804;10.220;2023-03-01T14:42:59;5.40;99.90
58469;DHT22;44257;44.804;10.220;2023-03-01T14:45:28;5.40;99.90
58469;DHT22;44257;44.804;10.220;2023-03-01T14:47:55;5.50;99.90
58469;DHT22;44257;44.804;10.220;2023-03-01T14:50:29;5.50;99.90
58469;DHT22;44257;44.804;10.220;2023-03-01T14:52:58;5.60;99.90
58469;DHT22;44257;44.804;10.220;2023-03-01T14:55:52;5.70;99.90
58469;DHT22;44257;44.804;10.220;2023-03-01T14:58:21;5.70;99.90
58469;DHT22;44257;44.804;10.220;2023-03-01T15:00:51;5.70;99.90
58469;DHT22;44257;44.804;10.220;2023-03-01T15:03:25;5.60;99.90
58469;DHT22;44257;44.804;10.220;2023-03-01T15:05:51;5.50;99.90
58469;DHT22;44257;44.804;10.220;2023-03-01T15:08:21;5.50;99.90
58469;DHT22;44257;44.804;10.220;2023-03-01T15:13:32;5.30;99.90
58469;DHT22;44257;44.804;10.220;2023-03-01T15:16:24;5.30;99.90
58469;DHT22;44257;44.804;10.220;2023-03-01T15:18:57;5.20;99.90
58469;DHT22;44257;44.804;10.220;2023-03-01T15:21:27;5.10;99.90
58469;DHT22;44257;44.804;10.220;2023-03-01T15:24:05;5.00;99.90
58469;DHT22;44257;44.804;10.220;2023-03-01T15:26:42;5.00;99.90
58469;DHT22;44257;44.804;10.220;2023-03-01T15:29:19;4.90;99.90
58469;DHT22;44257;44.804;10.220;2023-03-01T15:31:59;4.90;99.90
58469;DHT22;44257;44.804;10.220;2023-03-01T15:34:30;4.80;99.90
58469;DHT22;44257;44.804;10.220;2023-03-01T15:36:59;4.80;99.90
58469;DHT22;44257;44.804;10.220;2023-03-01T15:39:43;4.80;99.90
58469;DHT22;44257;44.804;10.220;2023-03-01T15:42:38;4.70;99.90
58469;DHT22;44257;44.804;10.220;2023-03-01T15:47:57;4.60;99.90
58469;DHT22;44257;44.804;10.220;2023-03-01T15:52:52;4.50;99.90
58469;DHT22;44257;44.804;10.220;2023-03-01T15:55:23;4.50;99.90
58469;DHT22;44257;44.804;10.220;2023-03-01T15:57:58;4.50;99.90
58469;DHT22;44257;44.804;10.220;2023-03-01T16:00:26;4.50;99.90
58469;DHT22;44257;44.804;10.220;2023-03-01T16:02:52;4.50;99.90
58469;DHT22;44257;44.804;10.220;2023-03-01T16:05:28;4.50;99.90
58469;DHT22;44257;44.804;10.220;2023-03-01T16:07:54;4.50;99.90
58469;DHT22;44257;44.804;10.220;2023-03-01T16:10:20;4.50;99.90
58469;DHT22;44257;44.804;10.220;2023-03-01T16:12:47;4.50;99.90
58469;DHT22;44257;44.804;10.220;2023-03-01T16:15:39;4.40;99.90
58469;DHT22;44257;44.804;10.220;2023-03-01T16:18:06;4.40;99.90
58469;DHT22;44257;44.804;10.220;2023-03-01T16:20:33;4.30;99.90
58469;DHT22;44257;44.804;10.220;2023-03-01T16:23:05;4.20;99.90
58469;DHT22;44257;44.804;10.220;2023-03-01T16:25:32;4.20;99.90
58469;DHT22;44257;44.804;10.220;2023-03-01T16:27:58;4.20;99.90
58469;DHT22;44257;44.804;10.220;2023-03-01T16:30:27;4.20;99.90
58469;DHT22;44257;44.804;10.220;2023-03-01T16:32:53;4.10;99.90
58469;DHT22;44257;44.804;10.220;2023-03-01T16:35:21;4.10;99.90
58469;DHT22;44257;44.804;10.220;2023-03-01T16:37:47;4.10;99.90
58469;DHT22;44257;44.804;10.220;2023-03-01T16:40:19;4.10;99.90
58469;DHT22;44257;44.804;10.220;2023-03-01T16:42:48;4.10;99.90
58469;DHT22;44257;44.804;10.220;2023-03-01T16:45:14;4.10;99.90
58469;DHT22;44257;44.804;10.220;2023-03-01T16:47:40;4.10;99.90
58469;DHT22;44257;44.804;10.220;2023-03-01T16:50:06;4.10;99.90
58469;DHT22;44257;44.804;10.220;2023-03-01T16:52:33;4.10;99.90
58469;DHT22;44257;44.804;10.220;2023-03-01T16:54:59;4.00;99.90
58469;DHT22;44257;44.804;10.220;2023-03-01T16:57:25;4.00;99.90
58469;DHT22;44257;44.804;10.220;2023-03-01T16:59:52;4.10;99.90
58469;DHT22;44257;44.804;10.220;2023-03-01T17:02:20;4.00;99.90
58469;DHT22;44257;44.804;10.220;2023-03-01T17:29:37;3.90;99.90
58469;DHT22;44257;44.804;10.220;2023-03-01T17:48:51;3.80;99.90
58469;DHT22;44257;44.804;10.220;2023-03-01T17:53:52;3.80;99.90
58469;DHT22;44257;44.804;10.220;2023-03-01T17:56:17;3.70;99.90
58469;DHT22;44257;44.804;10.220;2023-03-01T17:58:43;3.70;99.90
58469;DHT22;44257;44.804;10.220;2023-03-01T18:01:12;3.70;99.90
58469;DHT22;44257;44.804;10.220;2023-03-01T18:03:39;3.70;99.90
58469;DHT22;44257;44.804;10.220;2023-03-01T18:06:26;3.70;99.90
58469;DHT22;44257;44.804;10.220;2023-03-01T18:08:53;3.70;99.90
58469;DHT22;44257;44.804;10.220;2023-03-01T18:11:21;3.60;99.90
58469;DHT22;44257;44.804;10.220;2023-03-01T18:13:47;3.60;99.90
58469;DHT22;44257;44.804;10.220;2023-03-01T18:16:15;3.60;99.90
58469;DHT22;44257;44.804;10.220;2023-03-01T18:18:41;3.60;99.90
58469;DHT22;44257;44.804;10.220;2023-03-01T18:21:07;3.60;99.90
58469;DHT22;44257;44.804;10.220;2023-03-01T18:23:34;3.60;99.90
58469;DHT22;44257;44.804;10.220;2023-03-01T18:26:05;3.60;99.90
58469;DHT22;44257;44.804;10.220;2023-03-01T18:28:32;3.50;99.90
58469;DHT22;44257;44.804;10.220;2023-03-01T18:31:03;3.50;99.90
58469;DHT22;44257;44.804;10.220;2023-03-01T18:33:30;3.50;99.90
58469;DHT22;44257;44.804;10.220;2023-03-01T18:35:56;3.50;99.90
58469;DHT22;44257;44.804;10.220;2023-03-01T18:38:23;3.40;99.90
58469;DHT22;44257;44.804;10.220;2023-03-01T18:40:54;3.40;99.90
58469;DHT22;44257;44.804;10.220;2023-03-01T18:43:20;3.40;99.90
58469;DHT22;44257;44.804;10.220;2023-03-01T18:45:46;3.40;99.90
58469;DHT22;44257;44.804;10.220;2023-03-01T18:48:13;3.40;99.90
58469;DHT22;44257;44.804;10.220;2023-03-01T18:50:39;3.30;99.90
58469;DHT22;44257;44.804;10.220;2023-03-01T18:53:05;3.30;99.90